Meteo Giornale » Osservazioni meteo Italia » Capo Mele

ore: 15:55 - Osservazioni Meteo Capo Mele
Lat. 43° 57' N Lon. 8° 10' E Alt. 220 metri s.l.m.

sereno Europe/Rome

27 °C

Sereno

Temp. 24 Ore

20 °C

27 °C

Sud

7.4 Km/h

Dew point 11 °C

Umidità 36 %

Visibilità  10 Km

Il sole sorge alle ore 05:47

Il sole tramonta alle ore 21:01

Data e Ora Cielo e Fenomeni T °C DP °C Um. % Pres. hPa Vis. km Vento km/h
Oggi h: 15:55 sereno Sereno 27 11 36 1022 10 S 7.4
Oggi h: 14:55 sereno Sereno 25 11 41 1022 10 N 5.5
Oggi h: 13:55 sereno Sereno 27 11 36 1022 10 E 9.3
Oggi h: 12:55 sereno Sereno 25 15 53 1022 10 NE 7.4
Oggi h: 11:55 sereno Sereno 26 16 54 1022 10 N/NE 9.3
Oggi h: 10:55 sereno Sereno 24 19 73 1022 10 N/NE 13
Oggi h: 09:55 sereno Sereno 23 16 64 1022 10 N/NE 13
Oggi h: 08:55 sereno Sereno 23 14 56 1022 10 N/NE 11.1
Oggi h: 07:55 sereno Sereno 22 13 56 1022 10 N/NE 9.3
Oggi h: 06:55 sereno Sereno 21 14 64 1022 10 N 3.7
Oggi h: 05:55 sereno Sereno 20 14 68 1021 10 E/SE 7.4
Oggi h: 04:55 sereno Sereno 21 12 56 1021 10 N 3.7
Oggi h: 03:55 sereno Sereno 20 14 68 1021 10 N 1.8
Oggi h: 02:55 poco_nuvoloso Poco Nuvoloso 21 13 60 1021 10 N 3.7
Oggi h: 01:55 sereno Sereno 20 14 68 1021 10 N 1.8
Oggi h: 00:55 sereno Sereno 20 16 77 1021 10 N 9.3
Ieri h: 23:55 sereno Sereno 20 16 77 1021 10 N 11.1
Ieri h: 21:55 sereno Sereno 20 17 82 1020 10 N/NO 14.8
Ieri h: 20:55 sereno Sereno 21 11 52 1020 10 SO 16.7
Ieri h: 19:55 sereno Sereno 23 13 53 1020 10 S/SO 18.5
Ieri h: 18:55 sereno Sereno 23 12 49 1020 10 S/SO 18.5
Ieri h: 17:55 sereno Sereno 24 12 47 1020 10 S/SO 11.1
Ieri h: 16:55 sereno Sereno 24 10 41 1021 10 S/SO 11.1